Avioradar koristi kolačiće da bi Vam omogućio jednostavnije i ugodnije korištenje stranice. 

AVIORADAR - Hrvatski zrakoplovni portal

METAR & TAF

[Source: ADDS]
METAR
LDZA 050630Z VRB02KT CAVOK 20/15 Q1018 NOSIG =
LDZA 050525Z 0506/0606 VRB02KT CAVOK TX30/0513Z TN14/0603Z LDSP 050630Z 09009KT 360V120 CAVOK 28/14 Q1013 NOSIG =
LDSP 050525Z 0506/0606 VRB02KT CAVOK TX32/0512Z TN23/0602Z TEMPO 0506/0508 05013KT BECMG 0509/0511 23012KT BECMG 0517/0519 VRB02KT LDDU 050630Z 02014KT 320V070 CAVOK 27/14 Q1012 NOSIG =
LDDU 050525Z 0506/0606 02018KT CAVOK TX28/0509Z TN24/0602Z BECMG 0506/0508 VRB02KT BECMG 0512/0514 29008KT BECMG 0516/0518 02018KT PROB40 TEMPO 0518/0600 02025G40KT PROB30 TEMPO 0600/0606 02020G30KT LDPL 050630Z 03010KT CAVOK 26/11 Q1016 NOSIG =
LDPL 050525Z 0506/0606 04008KT CAVOK TX31/0513Z TN20/0603Z PROB40 TEMPO 0508/0512 06012KT BECMG 0513/0515 29008KT BECMG 0518/0520 02008KT LDZD 050630Z 05014KT 020V100 CAVOK 26/12 Q1015 NOSIG =
COR LDZD 050528Z 0506/0606 04008KT CAVOK TX32/0513Z TN19/0603Z TEMPO 0506/0512 04012KT BECMG 0510/0512 32010KT BECMG 0517/0519 02006KT LDRI 050630Z 01007KT 330V040 CAVOK 26/11 Q1016 =
LDRI 050525Z 0506/0606 03010KT CAVOK TX32/0513Z TN21/0603Z PROB40 TEMPO 0506/0512 32010KT PROB30 TEMPO 0506/0510 03015G25KT BECMG 0512/0514 04006KT LDOS 050630Z 32009KT CAVOK 22/13 Q1017 =
LDOS 050525Z 0506/0606 33006KT CAVOK TX31/0513Z TN17/0603Z
TAF
LDZA 050525Z 0506/0606 VRB02KT CAVOK TX30/0513Z TN14/0603Z =
LDSP 050525Z 0506/0606 VRB02KT CAVOK TX32/0512Z TN23/0602Z TEMPO 0506/0508 05013KT BECMG 0509/0511 23012KT BECMG 0517/0519 VRB02KT =
LDDU 050525Z 0506/0606 02018KT CAVOK TX28/0509Z TN24/0602Z BECMG 0506/0508 VRB02KT BECMG 0512/0514 29008KT BECMG 0516/0518 02018KT PROB40 TEMPO 0518/0600 02025G40KT PROB30 TEMPO 0600/0606 02020G30KT =
LDPL 050525Z 0506/0606 04008KT CAVOK TX31/0513Z TN20/0603Z PROB40 TEMPO 0508/0512 06012KT BECMG 0513/0515 29008KT BECMG 0518/0520 02008KT =
COR LDZD 050528Z 0506/0606 04008KT CAVOK TX32/0513Z TN19/0603Z TEMPO 0506/0512 04012KT BECMG 0510/0512 32010KT BECMG 0517/0519 02006KT =
LDRI 050525Z 0506/0606 03010KT CAVOK TX32/0513Z TN21/0603Z PROB40 TEMPO 0506/0512 32010KT PROB30 TEMPO 0506/0510 03015G25KT BECMG 0512/0514 04006KT =
LDOS 050525Z 0506/0606 33006KT CAVOK TX31/0513Z TN17/0603Z =
SR / SS: 03:13 / 18:47 UTC (Zagreb 2020-07-05)